createdAt,value
2023-05-09T00:04:51.718Z,9.18
2023-05-09T00:09:57.211Z,9.17
2023-05-09T00:15:02.513Z,9.14
2023-05-09T00:20:12.897Z,9.11
2023-05-09T00:25:18.236Z,9.07
2023-05-09T00:30:23.868Z,9.03
2023-05-09T00:35:29.245Z,8.99
2023-05-09T00:40:34.742Z,8.94
2023-05-09T00:45:40.463Z,8.89
2023-05-09T00:50:47.155Z,8.84
2023-05-09T00:55:53.457Z,8.79
2023-05-09T01:00:59.128Z,8.73
2023-05-09T01:06:12.691Z,8.68
2023-05-09T01:11:25.761Z,8.63
2023-05-09T01:16:39.401Z,8.57
2023-05-09T01:21:48.351Z,8.51
2023-05-09T01:27:11.168Z,8.46
2023-05-09T01:32:21.041Z,8.42
2023-05-09T01:37:31.489Z,8.38
2023-05-09T01:42:42.323Z,8.31
2023-05-09T01:47:49.162Z,8.26
2023-05-09T01:52:58.681Z,8.21
2023-05-09T01:58:05.865Z,8.16
2023-05-09T02:03:11.787Z,8.10
2023-05-09T02:08:21.309Z,8.06
2023-05-09T02:13:26.852Z,8.02
2023-05-09T02:18:32.795Z,8.00
2023-05-09T02:23:38.267Z,8.02
2023-05-09T02:28:44.668Z,8.02
2023-05-09T02:33:52.761Z,8.02
2023-05-09T02:38:58.486Z,8.02
2023-05-09T02:44:03.872Z,8.03
2023-05-09T02:49:11.400Z,8.03
2023-05-09T02:54:20.005Z,8.02
2023-05-09T02:59:25.789Z,8.01
2023-05-09T03:04:31.142Z,8.00
2023-05-09T03:09:37.035Z,7.99
2023-05-09T03:14:43.241Z,7.98
2023-05-09T03:19:48.624Z,7.95
2023-05-09T03:24:53.936Z,7.92
2023-05-09T03:29:59.567Z,7.90
2023-05-09T03:35:05.738Z,7.88
2023-05-09T03:40:12.420Z,7.86
2023-05-09T03:45:17.918Z,7.83
2023-05-09T03:50:23.268Z,7.78
2023-05-09T03:55:28.724Z,7.74
2023-05-09T04:00:34.078Z,7.73
2023-05-09T04:05:39.499Z,7.73
2023-05-09T04:10:44.806Z,7.75
2023-05-09T04:15:51.054Z,7.76
2023-05-09T04:20:56.346Z,7.76
2023-05-09T04:26:01.766Z,7.75
2023-05-09T04:31:07.253Z,7.74
2023-05-09T04:36:12.970Z,7.78
2023-05-09T04:41:18.286Z,8.54
2023-05-09T04:46:25.658Z,9.45
2023-05-09T04:51:31.220Z,9.70
2023-05-09T04:56:36.935Z,10.36
2023-05-09T05:01:42.296Z,10.57
2023-05-09T05:06:47.766Z,10.63
2023-05-09T05:12:00.824Z,10.82
2023-05-09T05:17:08.460Z,11.05
2023-05-09T05:22:13.833Z,11.21
2023-05-09T05:27:19.202Z,11.13
2023-05-09T05:32:24.591Z,11.12
2023-05-09T05:37:30.155Z,11.26
2023-05-09T05:42:35.953Z,11.47
2023-05-09T05:47:41.393Z,11.85
2023-05-09T05:52:47.185Z,12.11
2023-05-09T05:57:52.669Z,12.19
2023-05-09T06:02:58.000Z,12.13
2023-05-09T06:08:03.810Z,12.14
2023-05-09T06:13:09.258Z,12.16
2023-05-09T06:18:14.575Z,12.19
2023-05-09T06:23:22.302Z,12.22
2023-05-09T06:28:30.502Z,12.38
2023-05-09T06:33:36.095Z,12.57
2023-05-09T06:38:41.457Z,12.73
2023-05-09T06:43:46.892Z,12.75
2023-05-09T06:48:52.236Z,12.83
2023-05-09T06:53:57.683Z,12.97
2023-05-09T06:59:02.995Z,13.09
2023-05-09T07:04:08.748Z,13.22
2023-05-09T07:09:17.478Z,13.32
2023-05-09T07:14:23.030Z,13.48
2023-05-09T07:19:28.308Z,13.49
2023-05-09T07:24:33.816Z,13.77
2023-05-09T07:29:39.273Z,13.82
2023-05-09T07:34:44.673Z,13.77
2023-05-09T07:39:50.043Z,14.00
2023-05-09T07:44:55.559Z,14.13
2023-05-09T07:50:01.277Z,14.28
2023-05-09T07:55:07.620Z,14.71
2023-05-09T08:00:15.128Z,14.92
2023-05-09T08:05:20.609Z,15.05
2023-05-09T08:10:30.476Z,15.19
2023-05-09T08:15:35.808Z,15.29
2023-05-09T08:20:41.328Z,15.49
2023-05-09T08:25:46.815Z,15.77
2023-05-09T08:30:52.327Z,16.16
2023-05-09T08:35:58.087Z,16.39
2023-05-09T08:41:03.825Z,16.33
2023-05-09T08:46:11.246Z,16.40
2023-05-09T08:51:17.936Z,16.53
2023-05-09T08:56:23.473Z,16.60
2023-05-09T09:01:29.151Z,16.70
2023-05-09T09:06:36.162Z,16.90
2023-05-09T09:11:42.697Z,16.83
2023-05-09T09:16:49.751Z,16.76
2023-05-09T09:21:57.582Z,16.88
2023-05-09T09:27:07.143Z,16.96
2023-05-09T09:32:12.528Z,17.12
2023-05-09T09:37:24.554Z,17.14
2023-05-09T09:42:42.607Z,17.31
2023-05-09T09:47:50.245Z,17.45
2023-05-09T09:52:57.066Z,17.69
2023-05-09T09:58:02.621Z,17.88
2023-05-09T10:03:14.305Z,17.98
2023-05-09T10:08:19.742Z,18.19
2023-05-09T10:13:26.214Z,18.42
2023-05-09T10:18:32.257Z,18.48
2023-05-09T10:23:40.727Z,18.35
2023-05-09T10:28:49.625Z,18.30
2023-05-09T10:33:56.096Z,18.36
2023-05-09T10:39:02.527Z,18.42
2023-05-09T10:44:08.164Z,18.46
2023-05-09T10:49:14.184Z,18.41
2023-05-09T10:54:30.731Z,18.39
2023-05-09T10:59:40.072Z,18.63
2023-05-09T11:04:46.777Z,18.87
2023-05-09T11:10:06.964Z,18.89
2023-05-09T11:15:13.684Z,18.95
2023-05-09T11:20:28.036Z,18.92
2023-05-09T11:25:34.171Z,19.02
2023-05-09T11:30:43.787Z,19.15
2023-05-09T11:36:09.674Z,19.40
2023-05-09T11:41:15.895Z,19.39
2023-05-09T11:46:21.365Z,19.52
2023-05-09T11:51:26.893Z,19.61
2023-05-09T11:56:33.063Z,19.73
2023-05-09T12:01:38.507Z,19.79
2023-05-09T12:06:49.531Z,19.95
2023-05-09T12:11:54.929Z,20.12
2023-05-09T12:17:01.261Z,20.24
2023-05-09T12:22:07.030Z,20.25
2023-05-09T12:27:12.476Z,20.24
2023-05-09T12:32:18.396Z,20.25
2023-05-09T12:37:23.792Z,20.44
2023-05-09T12:42:30.417Z,20.45
2023-05-09T12:47:38.885Z,20.41
2023-05-09T12:53:02.110Z,20.30
2023-05-09T12:58:09.821Z,20.47
2023-05-09T13:03:26.122Z,20.52
2023-05-09T13:08:32.421Z,20.48
2023-05-09T13:13:37.771Z,20.34
2023-05-09T13:18:43.154Z,20.32
2023-05-09T13:23:50.236Z,20.27
2023-05-09T13:28:56.024Z,20.25
2023-05-09T13:34:01.326Z,20.36
2023-05-09T13:39:06.712Z,20.38
2023-05-09T13:44:12.590Z,20.39
2023-05-09T13:49:19.566Z,20.34
2023-05-09T13:54:24.851Z,20.22
2023-05-09T13:59:30.950Z,20.05
2023-05-09T14:04:36.697Z,20.04
2023-05-09T14:09:42.201Z,19.98
2023-05-09T14:14:47.464Z,19.96
2023-05-09T14:19:53.026Z,20.00
2023-05-09T14:24:58.648Z,19.95
2023-05-09T14:30:04.793Z,19.82
2023-05-09T14:35:11.006Z,19.80
2023-05-09T14:40:16.736Z,19.78
2023-05-09T14:45:22.379Z,19.85
2023-05-09T14:50:27.874Z,19.77
2023-05-09T14:55:33.526Z,19.60
2023-05-09T15:00:38.963Z,19.56
2023-05-09T15:05:44.871Z,19.55
2023-05-09T15:10:50.947Z,19.57
2023-05-09T15:15:57.213Z,19.49
2023-05-09T15:21:02.821Z,19.44
2023-05-09T15:26:08.870Z,19.43
2023-05-09T15:31:14.586Z,19.35
2023-05-09T15:36:20.113Z,19.24
2023-05-09T15:41:25.621Z,19.23
2023-05-09T15:46:31.422Z,19.18
2023-05-09T15:51:36.872Z,19.19
2023-05-09T15:56:42.206Z,19.17
2023-05-09T16:01:47.654Z,19.17
2023-05-09T16:06:53.272Z,19.12
2023-05-09T16:11:58.724Z,19.03
2023-05-09T16:17:04.608Z,18.98
2023-05-09T16:22:10.120Z,18.95
2023-05-09T16:27:15.620Z,18.90
2023-05-09T16:32:21.309Z,18.89
2023-05-09T16:37:29.192Z,18.88
2023-05-09T16:42:34.541Z,18.84
2023-05-09T16:47:39.805Z,18.79
2023-05-09T16:52:45.430Z,18.69
2023-05-09T16:57:50.689Z,18.57
2023-05-09T17:02:56.145Z,18.47
2023-05-09T17:08:01.566Z,18.38
2023-05-09T17:13:08.922Z,18.29
2023-05-09T17:18:22.088Z,18.22
2023-05-09T17:23:34.990Z,18.10
2023-05-09T17:28:49.630Z,17.99
2023-05-09T17:34:05.473Z,17.85
2023-05-09T17:39:31.164Z,17.73
2023-05-09T17:44:56.939Z,17.61
2023-05-09T17:50:22.570Z,17.50
2023-05-09T17:55:48.831Z,17.37
2023-05-09T18:01:15.740Z,17.26
2023-05-09T18:06:41.890Z,17.13
2023-05-09T18:12:07.617Z,17.01
2023-05-09T18:17:33.773Z,16.89
2023-05-09T18:22:59.796Z,16.76
2023-05-09T18:28:25.714Z,16.63
2023-05-09T18:33:51.866Z,16.53
2023-05-09T18:39:09.151Z,16.42
2023-05-09T18:44:35.023Z,16.34
2023-05-09T18:50:12.413Z,16.25
2023-05-09T18:55:39.191Z,16.14
2023-05-09T19:01:05.273Z,16.03
2023-05-09T19:06:31.277Z,15.92
2023-05-09T19:11:57.247Z,15.80
2023-05-09T19:17:24.594Z,15.67
2023-05-09T19:22:51.829Z,15.54
2023-05-09T19:28:19.072Z,15.44
2023-05-09T19:33:44.783Z,15.33
2023-05-09T19:39:10.591Z,15.25
2023-05-09T19:44:37.657Z,15.15
2023-05-09T19:50:03.319Z,15.04
2023-05-09T19:55:29.998Z,14.95
2023-05-09T20:00:55.816Z,14.86
2023-05-09T20:06:21.272Z,14.78
2023-05-09T20:11:47.054Z,14.71
2023-05-09T20:17:13.414Z,14.62
2023-05-09T20:22:39.452Z,14.53
2023-05-09T20:28:05.286Z,14.46
2023-05-09T20:33:30.936Z,14.39
2023-05-09T20:38:57.979Z,14.33
2023-05-09T20:44:23.827Z,14.24
2023-05-09T20:49:49.526Z,14.16
2023-05-09T20:55:15.301Z,14.09
2023-05-09T21:00:41.040Z,14.00
2023-05-09T21:06:06.781Z,13.93
2023-05-09T21:11:32.800Z,13.88
2023-05-09T21:16:51.134Z,13.80
2023-05-09T21:22:17.318Z,13.73
2023-05-09T21:27:43.146Z,13.66
2023-05-09T21:33:11.565Z,13.59
2023-05-09T21:38:37.176Z,13.52
2023-05-09T21:44:03.130Z,13.46
2023-05-09T21:49:28.988Z,13.39
2023-05-09T21:54:54.798Z,13.33
2023-05-09T22:00:20.646Z,13.27
2023-05-09T22:05:46.665Z,13.21
2023-05-09T22:11:14.229Z,13.15
2023-05-09T22:16:44.755Z,13.08
2023-05-09T22:22:10.739Z,13.03
2023-05-09T22:27:36.581Z,12.98
2023-05-09T22:33:02.437Z,12.92
2023-05-09T22:38:20.728Z,12.86
2023-05-09T22:43:46.513Z,12.82
2023-05-09T22:49:12.348Z,12.75
2023-05-09T22:54:40.719Z,12.67
2023-05-09T23:00:06.649Z,12.59
2023-05-09T23:05:32.532Z,12.52
2023-05-09T23:10:58.354Z,12.46
2023-05-09T23:16:24.037Z,12.37
2023-05-09T23:21:49.843Z,12.27
2023-05-09T23:27:15.891Z,12.18
2023-05-09T23:32:41.820Z,12.11
2023-05-09T23:38:07.654Z,12.05
2023-05-09T23:43:33.493Z,11.97
2023-05-09T23:48:59.112Z,11.88
2023-05-09T23:54:25.174Z,11.77
2023-05-09T23:59:51.006Z,11.64
